Seagers, Pennsylvania
Current Conditions -  °F | °C
As of 2:54 AM on Thursday 18 Dec 2014 (Local Time) from KIPT Reporting Station
Overcast Overcast  
Wind Chill: 24°   Ceiling: 4100
Heat Index: 34°   Visibility: 10mi
Dew Point: 21°   Wind: 15mph
Humidity: 59%   Direction: 280°W
Pressure: 30.02"   Gusts: 22mph
Location:  41.225°N, 76.7388°W
Report Text: KIPT 180754Z AUTO 28013G19KT 10SM OVC041 01/M06 A3002 RMK AO2 SLP169 T00111061
Loading
Personal Weather Stations






























Interactive Weather Map New forecast layout! Learn more

10-Day Weather Forecast

Advertisements
Track Severe Weather on mobile